createdAt,value
2023-01-19T05:35:37.223Z,8.36
2023-01-19T05:38:04.963Z,8.38
2023-01-19T05:40:35.839Z,8.50
2023-01-19T05:43:03.937Z,8.52
2023-01-19T05:45:32.630Z,8.53
2023-01-19T05:48:00.481Z,8.63
2023-01-19T05:50:28.319Z,8.66
2023-01-19T05:52:57.624Z,8.69
2023-01-19T05:55:25.355Z,8.75
2023-01-19T05:57:53.241Z,8.79
2023-01-19T06:00:21.345Z,8.78
2023-01-19T06:02:48.878Z,8.69
2023-01-19T06:05:19.557Z,8.78
2023-01-19T06:07:47.624Z,8.80
2023-01-19T06:10:17.098Z,8.79
2023-01-19T06:12:45.203Z,8.79
2023-01-19T06:15:15.410Z,8.84
2023-01-19T06:17:43.387Z,8.88
2023-01-19T06:20:12.547Z,8.91
2023-01-19T06:22:40.284Z,8.91
2023-01-19T06:25:08.901Z,9.02
2023-01-19T06:27:39.360Z,9.10
2023-01-19T06:30:08.450Z,9.15
2023-01-19T06:32:36.102Z,9.21
2023-01-19T06:35:04.995Z,9.26
2023-01-19T06:37:33.415Z,9.30
2023-01-19T06:40:00.993Z,9.35
2023-01-19T06:42:28.925Z,9.42
2023-01-19T06:44:57.997Z,9.42
2023-01-19T06:47:25.894Z,9.47
2023-01-19T06:49:53.558Z,9.56
2023-01-19T06:52:21.145Z,9.60
2023-01-19T06:54:49.825Z,9.69
2023-01-19T06:57:17.592Z,9.75
2023-01-19T06:59:46.544Z,9.82
2023-01-19T07:02:27.061Z,9.92
2023-01-19T07:04:55.826Z,10.06
2023-01-19T07:07:24.034Z,10.16
2023-01-19T07:09:53.974Z,10.30
2023-01-19T07:12:22.188Z,10.38
2023-01-19T07:14:50.167Z,10.47
2023-01-19T07:17:19.646Z,10.56
2023-01-19T07:19:47.449Z,10.64
2023-01-19T07:22:15.551Z,10.72
2023-01-19T07:24:43.069Z,10.77
2023-01-19T07:27:11.013Z,10.85
2023-01-19T07:29:38.626Z,10.96
2023-01-19T07:32:06.634Z,11.10
2023-01-19T07:34:35.989Z,11.14
2023-01-19T07:37:03.861Z,11.18
2023-01-19T07:39:31.648Z,11.35
2023-01-19T07:41:59.353Z,11.40
2023-01-19T07:44:27.973Z,11.46
2023-01-19T07:46:55.653Z,11.52
2023-01-19T07:49:23.455Z,11.59
2023-01-19T07:51:52.365Z,11.66
2023-01-19T07:54:19.908Z,11.74
2023-01-19T07:56:48.195Z,11.77
2023-01-19T07:59:15.747Z,11.86
2023-01-19T09:29:54.165Z,13.59
2023-01-19T09:32:22.059Z,13.73
2023-01-19T09:34:49.656Z,13.73
2023-01-19T09:37:17.373Z,13.79
2023-01-19T09:39:45.141Z,13.78
2023-01-19T09:42:21.771Z,13.83
2023-01-19T09:44:50.690Z,13.84
2023-01-19T09:47:24.872Z,13.82
2023-01-19T09:49:56.300Z,13.79
2023-01-19T09:52:23.934Z,13.85
2023-01-19T09:54:55.913Z,13.79
2023-01-19T09:57:25.360Z,13.82
2023-01-19T09:59:53.194Z,13.86
2023-01-19T10:02:35.883Z,13.85
2023-01-19T10:05:05.285Z,13.84
2023-01-19T10:07:42.243Z,13.86
2023-01-19T10:10:19.599Z,13.90
2023-01-19T10:13:04.198Z,13.88
2023-01-19T10:15:52.087Z,13.90
2023-01-19T10:18:24.146Z,13.91
2023-01-19T10:20:55.528Z,13.94
2023-01-19T10:23:39.774Z,13.93
2023-01-19T10:26:13.767Z,14.03
2023-01-19T10:28:42.274Z,14.06
2023-01-19T10:31:11.178Z,14.04
2023-01-19T10:33:40.221Z,14.00
2023-01-19T10:36:17.714Z,14.04
2023-01-19T10:38:46.000Z,13.98
2023-01-19T10:41:18.637Z,14.03
2023-01-19T10:43:47.195Z,14.05
2023-01-19T10:46:22.506Z,14.01
2023-01-19T10:48:53.236Z,14.00
2023-01-19T10:51:22.070Z,13.92
2023-01-19T10:54:01.298Z,13.86
2023-01-19T10:56:32.542Z,13.85
2023-01-19T10:59:01.704Z,13.86
2023-01-19T11:01:30.099Z,13.94
2023-01-19T11:03:59.131Z,13.92
2023-01-19T11:06:29.121Z,13.83
2023-01-19T11:09:14.182Z,13.86
2023-01-19T11:11:44.395Z,13.84
2023-01-19T11:14:18.487Z,13.85
2023-01-19T11:16:49.949Z,13.81
2023-01-19T11:19:26.234Z,13.83
2023-01-19T11:22:09.926Z,13.80
2023-01-19T11:24:39.107Z,13.76
2023-01-19T11:27:06.927Z,13.75
2023-01-19T11:29:34.706Z,13.72
2023-01-19T11:32:19.391Z,13.69
2023-01-19T11:34:48.592Z,13.72
2023-01-19T11:37:31.223Z,13.72
2023-01-19T11:40:00.309Z,13.65
2023-01-19T11:42:32.635Z,13.69
2023-01-19T11:45:06.200Z,13.64
2023-01-19T11:47:41.306Z,13.56
2023-01-19T11:50:21.987Z,13.58
2023-01-19T11:52:55.369Z,13.57
2023-01-19T11:55:33.069Z,13.56
2023-01-19T11:58:02.767Z,13.47
2023-01-19T12:00:36.296Z,13.50
2023-01-19T12:03:13.215Z,13.48
2023-01-19T12:05:48.503Z,13.47
2023-01-19T12:08:22.209Z,13.38
2023-01-19T12:10:53.057Z,13.36
2023-01-19T12:13:23.033Z,13.30
2023-01-19T12:15:55.729Z,13.27
2023-01-19T12:18:28.238Z,13.28
2023-01-19T12:20:57.514Z,13.24
2023-01-19T12:23:38.008Z,13.21
2023-01-19T12:26:33.219Z,13.18
2023-01-19T12:29:06.579Z,13.15
2023-01-19T12:31:37.375Z,13.04
2023-01-19T12:34:42.175Z,13.08
2023-01-19T12:37:32.426Z,13.07
2023-01-19T12:40:03.123Z,13.01
2023-01-19T12:42:31.062Z,12.95
2023-01-19T12:45:07.912Z,12.92
2023-01-19T12:47:37.319Z,12.93
2023-01-19T12:50:06.982Z,12.86
2023-01-19T12:52:40.799Z,12.82
2023-01-19T12:55:21.099Z,12.73
2023-01-19T12:57:55.522Z,12.76
2023-01-19T13:00:38.640Z,12.67
2023-01-19T13:03:39.650Z,12.69
2023-01-19T13:06:07.467Z,12.62
2023-01-19T13:08:59.655Z,12.52
2023-01-19T13:11:32.549Z,12.50
2023-01-19T13:14:34.051Z,12.41
2023-01-19T13:17:33.053Z,12.42
2023-01-19T13:20:18.723Z,12.36
2023-01-19T13:22:51.232Z,12.27
2023-01-19T13:25:30.199Z,12.10
2023-01-19T13:27:58.511Z,12.15
2023-01-19T13:30:28.702Z,12.07
2023-01-19T13:33:01.655Z,12.03
2023-01-19T13:35:29.621Z,12.03
2023-01-19T13:37:58.821Z,12.02
2023-01-19T13:40:36.778Z,11.99
2023-01-19T13:43:14.063Z,11.96
2023-01-19T13:45:49.464Z,11.90
2023-01-19T13:48:21.409Z,11.90
2023-01-19T13:51:01.030Z,11.85
2023-01-19T13:53:29.167Z,11.77
2023-01-19T13:56:09.840Z,11.74
2023-01-19T13:58:37.515Z,11.58
2023-01-19T14:01:05.122Z,11.54
2023-01-19T14:03:33.063Z,11.50
2023-01-19T14:06:00.764Z,11.43
2023-01-19T14:08:28.536Z,11.34
2023-01-19T14:11:02.872Z,11.27
2023-01-19T14:13:33.338Z,11.15
2023-01-19T14:16:06.434Z,11.08
2023-01-19T14:18:35.445Z,11.04
2023-01-19T14:21:05.644Z,10.96
2023-01-19T14:23:42.187Z,11.02
2023-01-19T14:26:42.826Z,10.96
2023-01-19T14:29:26.294Z,10.82
2023-01-19T14:32:07.215Z,10.77
2023-01-19T14:34:37.327Z,10.65
2023-01-19T14:37:15.231Z,10.67
2023-01-19T14:39:46.312Z,10.60
2023-01-19T14:42:23.591Z,10.55
2023-01-19T14:44:55.100Z,10.49
2023-01-19T14:47:28.879Z,10.47
2023-01-19T14:50:00.035Z,10.45
2023-01-19T14:52:31.292Z,10.41
2023-01-19T14:54:59.507Z,10.33
2023-01-19T14:57:27.170Z,10.32
2023-01-19T14:59:56.176Z,10.28
2023-01-19T15:02:23.776Z,10.22
2023-01-19T15:04:51.459Z,10.22
2023-01-19T15:07:19.830Z,10.21
2023-01-19T15:09:48.005Z,10.18
2023-01-19T15:12:18.324Z,10.15
2023-01-19T15:14:46.508Z,10.13
2023-01-19T15:17:21.375Z,10.04
2023-01-19T15:19:49.007Z,10.07
2023-01-19T15:22:16.544Z,10.12
2023-01-19T15:24:44.211Z,10.07
2023-01-19T15:27:12.316Z,10.06
2023-01-19T15:29:40.006Z,10.08
2023-01-19T15:32:12.677Z,10.07
2023-01-19T15:34:42.047Z,10.08
2023-01-19T15:37:09.553Z,10.08
2023-01-19T15:39:37.191Z,10.08
2023-01-19T15:42:04.906Z,10.01
2023-01-19T15:44:32.496Z,10.04
2023-01-19T15:47:00.314Z,10.02
2023-01-19T15:49:28.121Z,9.97
2023-01-19T15:51:57.260Z,9.94
2023-01-19T15:54:24.961Z,9.91
2023-01-19T15:56:52.920Z,9.90
2023-01-19T15:59:20.569Z,9.91
2023-01-19T16:01:48.564Z,9.90
2023-01-19T16:04:18.056Z,9.90
2023-01-19T16:06:45.755Z,9.91
2023-01-19T16:09:14.847Z,9.81
2023-01-19T16:11:42.535Z,9.86
2023-01-19T16:14:10.200Z,9.88
2023-01-19T16:16:38.193Z,9.90
2023-01-19T16:19:05.801Z,9.92
2023-01-19T16:21:33.325Z,9.91
2023-01-19T16:24:01.036Z,9.90
2023-01-19T16:26:32.316Z,9.94
2023-01-19T16:29:01.796Z,9.91
2023-01-19T16:31:29.773Z,9.86
2023-01-19T16:33:57.331Z,9.88
2023-01-19T16:36:26.908Z,9.86
2023-01-19T16:38:58.153Z,9.89
2023-01-19T16:41:25.786Z,9.81
2023-01-19T16:43:57.128Z,9.91
2023-01-19T16:46:27.378Z,9.92
2023-01-19T16:48:59.723Z,9.88
2023-01-19T16:51:27.446Z,9.89
2023-01-19T16:53:55.009Z,9.87
2023-01-19T16:56:22.823Z,9.86
2023-01-19T16:58:54.560Z,9.86
2023-01-19T17:01:22.005Z,9.84
2023-01-19T22:22:13.941Z,9.22
2023-01-19T22:24:41.644Z,9.13
2023-01-19T22:27:09.162Z,9.19
2023-01-19T22:29:36.813Z,9.13
2023-01-19T22:32:04.945Z,9.02
2023-01-19T22:34:32.467Z,8.99
2023-01-19T22:37:00.305Z,8.56
2023-01-19T22:39:29.687Z,8.96
2023-01-19T22:41:57.289Z,8.84
2023-01-19T22:44:24.999Z,8.76
2023-01-19T22:46:55.546Z,8.72
2023-01-19T22:49:23.403Z,8.66
2023-01-19T22:51:51.248Z,8.60
2023-01-19T22:54:18.959Z,8.52
2023-01-19T22:56:48.004Z,8.53
2023-01-19T22:59:15.802Z,8.48
2023-01-19T23:01:44.372Z,8.45
2023-01-19T23:04:13.502Z,8.56
2023-01-19T23:06:41.252Z,8.60
2023-01-19T23:09:12.712Z,8.59
2023-01-19T23:11:42.306Z,8.52
2023-01-19T23:14:14.425Z,8.52
2023-01-19T23:16:42.520Z,8.53
2023-01-19T23:19:11.873Z,8.51
2023-01-19T23:21:40.223Z,8.57
2023-01-19T23:24:08.797Z,8.53
2023-01-19T23:26:37.246Z,8.50
2023-01-19T23:29:06.680Z,8.51
2023-01-19T23:31:37.689Z,8.54
2023-01-19T23:34:07.630Z,8.59
2023-01-19T23:36:37.295Z,8.68
2023-01-19T23:39:07.143Z,8.70
2023-01-19T23:41:34.871Z,8.68
2023-01-19T23:44:02.778Z,8.60
2023-01-19T23:46:30.680Z,8.59
2023-01-19T23:48:59.909Z,8.54
2023-01-19T23:51:29.690Z,8.59
2023-01-19T23:53:58.046Z,8.60
2023-01-19T23:56:27.786Z,8.56
2023-01-19T23:58:56.851Z,8.58
